Time;durP1;ratioP1;P1;durP2;ratioP2;P2;SDS_P1;SDS_P2;PMS_P1;PMS_P2;Temp;Humidity;BMP_temperature;BMP_pressure;BME280_temperature;BME280_humidity;BME280_pressure;Samples;Min_cycle;Max_cycle;Signal;HPM_P1;HPM_P2
2022/03/21 00:02:25;;;;;;;43.65;24.65;;;6.60;99.90;;;;;;5025606;28;20643;-62
2022/03/21 00:04:51;;;;;;;43.50;23.85;;;6.60;99.90;;;;;;5029586;28;20557;-61
2022/03/21 00:07:18;;;;;;;37.70;22.75;;;6.50;99.90;;;;;;5031297;28;20756;-61
2022/03/21 00:09:44;;;;;;;45.05;23.00;;;6.50;99.90;;;;;;5031257;28;20402;-62
2022/03/21 00:12:10;;;;;;;39.08;22.10;;;6.50;99.90;;;;;;5020519;28;20510;-62
2022/03/21 00:14:36;;;;;;;43.42;22.50;;;6.50;99.90;;;;;;5023311;28;20040;-62
2022/03/21 00:17:01;;;;;;;39.80;21.65;;;6.60;99.90;;;;;;5031329;28;20124;-62
2022/03/21 00:19:27;;;;;;;39.20;21.10;;;6.50;99.90;;;;;;5023592;28;20044;-61
2022/03/21 00:21:52;;;;;;;43.22;21.60;;;6.50;99.90;;;;;;5030559;28;20216;-62
2022/03/21 00:24:18;;;;;;;41.63;21.38;;;6.50;99.90;;;;;;5030635;28;20148;-62
2022/03/21 00:26:44;;;;;;;40.08;20.73;;;6.50;99.90;;;;;;5031383;28;20112;-62
2022/03/21 00:29:09;;;;;;;41.30;20.85;;;6.50;99.90;;;;;;5024934;28;20041;-61
2022/03/21 00:31:36;;;;;;;37.83;20.55;;;6.50;99.90;;;;;;5030662;28;20083;-62
2022/03/21 00:34:02;;;;;;;36.25;19.27;;;6.50;99.90;;;;;;5013035;28;20073;-62
2022/03/21 00:36:28;;;;;;;36.03;19.33;;;6.40;99.90;;;;;;5007566;28;20076;-61
2022/03/21 00:38:54;;;;;;;33.72;18.08;;;6.40;99.90;;;;;;5029933;28;20033;-61
2022/03/21 00:41:21;;;;;;;37.13;17.83;;;6.40;99.90;;;;;;5030914;28;20045;-61
2022/03/21 00:43:47;;;;;;;34.00;17.35;;;6.40;99.90;;;;;;5030838;28;20124;-62
2022/03/21 00:46:13;;;;;;;32.17;16.85;;;6.40;99.90;;;;;;5022829;28;20045;-62
2022/03/21 00:48:38;;;;;;;32.67;16.40;;;6.40;99.90;;;;;;5027257;28;20033;-62
2022/03/21 00:51:04;;;;;;;31.90;17.42;;;6.40;99.90;;;;;;5030739;28;20075;-61
2022/03/21 00:53:29;;;;;;;30.42;15.93;;;6.40;99.90;;;;;;5021613;28;20025;-61
2022/03/21 00:55:55;;;;;;;29.25;16.77;;;6.40;99.90;;;;;;5029705;28;20619;-62
2022/03/21 00:58:21;;;;;;;26.95;14.57;;;6.30;99.90;;;;;;5030683;28;20041;-62
2022/03/21 01:00:46;;;;;;;28.50;15.30;;;6.30;99.90;;;;;;5009776;28;20232;-62
2022/03/21 01:03:12;;;;;;;26.45;14.50;;;6.30;99.90;;;;;;5027793;28;20030;-61
2022/03/21 01:05:38;;;;;;;32.13;15.65;;;6.30;99.90;;;;;;5012501;28;20041;-62
2022/03/21 01:08:04;;;;;;;29.45;15.25;;;6.20;99.90;;;;;;5008966;28;20048;-62
2022/03/21 01:10:31;;;;;;;28.92;15.57;;;6.30;99.90;;;;;;5022052;28;20116;-61
2022/03/21 01:12:57;;;;;;;29.55;15.43;;;6.30;99.90;;;;;;5029747;28;20040;-62
2022/03/21 01:15:25;;;;;;;28.80;15.38;;;6.30;99.90;;;;;;5030771;28;20037;-62
2022/03/21 01:17:51;;;;;;;26.73;15.77;;;6.30;99.90;;;;;;5014280;28;20081;-62
2022/03/21 01:20:19;;;;;;;30.60;16.38;;;6.30;99.90;;;;;;5029721;28;20030;-62
2022/03/21 01:22:45;;;;;;;27.98;15.75;;;6.30;99.90;;;;;;5030132;28;20048;-62
2022/03/21 01:25:11;;;;;;;30.52;16.25;;;6.20;99.90;;;;;;5031159;28;20034;-62
2022/03/21 01:27:38;;;;;;;31.33;15.65;;;6.20;99.90;;;;;;5026089;28;20116;-62
2022/03/21 01:30:09;;;;;;;34.35;15.35;;;6.20;99.90;;;;;;5034311;28;20112;-62
2022/03/21 01:32:35;;;;;;;;;;;6.20;99.90;;;;;;5029511;28;20079;-61
2022/03/21 01:35:01;;;;;;;32.80;15.57;;;6.20;99.90;;;;;;5018537;28;19924;-62
2022/03/21 01:37:26;;;;;;;29.08;14.77;;;6.20;99.90;;;;;;5033972;28;20456;-61
2022/03/21 01:39:52;;;;;;;27.02;14.75;;;6.20;99.90;;;;;;5030881;28;20124;-62
2022/03/21 01:42:18;;;;;;;31.00;15.63;;;6.10;99.90;;;;;;5017788;28;20488;-62
2022/03/21 01:44:43;;;;;;;29.85;16.27;;;6.10;99.90;;;;;;5007690;28;20117;-61
2022/03/21 01:47:09;;;;;;;29.90;15.82;;;6.10;99.90;;;;;;5033867;28;20033;-62
2022/03/21 01:49:35;;;;;;;31.67;15.82;;;6.10;99.90;;;;;;5033999;28;20048;-62
2022/03/21 01:52:01;;;;;;;32.40;14.95;;;6.10;99.90;;;;;;5024248;28;20505;-62
2022/03/21 01:57:12;;;;;;;27.25;15.07;;;6.00;99.90;;;;;;5027229;28;20041;-62
2022/03/21 01:59:38;;;;;;;27.40;15.90;;;6.00;99.90;;;;;;5004442;28;20072;-62
2022/03/21 02:02:06;;;;;;;30.38;15.20;;;6.00;99.90;;;;;;5028357;28;20104;-62
2022/03/21 02:04:32;;;;;;;28.10;15.63;;;6.00;99.90;;;;;;5033357;28;20042;-61
2022/03/21 02:06:59;;;;;;;32.88;15.40;;;6.00;99.90;;;;;;5033169;28;20043;-62
2022/03/21 02:09:25;;;;;;;33.47;15.75;;;5.90;99.90;;;;;;5025748;28;20044;-62
2022/03/21 02:11:50;;;;;;;30.77;15.15;;;5.90;99.90;;;;;;5033368;28;20141;-62
2022/03/21 02:14:16;;;;;;;33.45;16.27;;;6.00;99.90;;;;;;5033376;28;20128;-61
2022/03/21 02:16:42;;;;;;;34.65;17.17;;;6.00;99.90;;;;;;5023973;28;20022;-62
2022/03/21 02:19:20;;;;;;;32.13;16.58;;;6.00;99.90;;;;;;5026171;28;20491;-62
2022/03/21 02:22:23;;;;;;;30.10;14.60;;;6.00;99.90;;;;;;5033590;28;20045;-62
2022/03/21 02:25:15;;;;;;;35.75;15.90;;;6.00;99.90;;;;;;5028867;28;20663;-62
2022/03/21 02:27:42;;;;;;;24.13;14.18;;;5.90;99.90;;;;;;5031030;28;20067;-62
2022/03/21 02:30:08;;;;;;;29.20;15.38;;;5.80;99.90;;;;;;5033159;28;20084;-61
2022/03/21 02:32:35;;;;;;;26.70;14.55;;;5.80;99.90;;;;;;5027253;28;20065;-61
2022/03/21 02:35:02;;;;;;;30.98;16.33;;;5.70;99.90;;;;;;5024502;28;20514;-62
2022/03/21 02:37:27;;;;;;;29.42;15.95;;;5.60;99.90;;;;;;5033142;28;20426;-61
2022/03/21 02:39:55;;;;;;;28.10;15.20;;;5.50;99.90;;;;;;5027760;28;20469;-62
2022/03/21 02:42:21;;;;;;;28.20;14.60;;;5.50;99.90;;;;;;5022058;28;20041;-62
2022/03/21 02:44:47;;;;;;;27.63;14.68;;;5.40;99.90;;;;;;5030462;28;20033;-61
2022/03/21 02:47:13;;;;;;;29.90;15.55;;;5.30;99.90;;;;;;5033052;28;20059;-62
2022/03/21 02:49:38;;;;;;;28.67;14.63;;;5.20;99.90;;;;;;5021374;28;20080;-61
2022/03/21 02:52:06;;;;;;;29.52;15.25;;;5.20;99.90;;;;;;5014639;28;20044;-61
2022/03/21 02:54:32;;;;;;;31.83;16.75;;;5.10;99.90;;;;;;5032441;28;20723;-62
2022/03/21 02:56:59;;;;;;;31.33;14.68;;;5.10;99.90;;;;;;5030090;28;20472;-61
2022/03/21 02:59:25;;;;;;;29.75;16.20;;;5.00;99.90;;;;;;5026016;28;20553;-62
2022/03/21 03:01:55;;;;;;;29.10;15.48;;;5.00;99.90;;;;;;5032559;28;20123;-61
2022/03/21 03:04:21;;;;;;;30.42;15.77;;;5.00;99.90;;;;;;5026656;28;20092;-62
2022/03/21 03:06:47;;;;;;;32.33;16.42;;;5.00;99.90;;;;;;5019788;28;20045;-62
2022/03/21 03:09:13;;;;;;;32.75;15.27;;;4.90;99.90;;;;;;5025851;28;20162;-62
2022/03/21 03:11:38;;;;;;;27.77;15.05;;;4.80;99.90;;;;;;5032520;28;20191;-61
2022/03/21 03:14:05;;;;;;;26.65;14.02;;;4.70;99.90;;;;;;5028662;28;20116;-62
2022/03/21 03:16:31;;;;;;;27.15;15.30;;;4.60;99.90;;;;;;5031855;28;20402;-61
2022/03/21 03:18:56;;;;;;;23.55;12.65;;;4.50;99.90;;;;;;5032017;28;20487;-61
2022/03/21 03:21:25;;;;;;;20.65;12.23;;;4.20;99.90;;;;;;5029704;28;20075;-62
2022/03/21 03:23:51;;;;;;;29.15;14.95;;;4.10;99.90;;;;;;5027371;28;20484;-62
2022/03/21 03:26:17;;;;;;;27.85;15.73;;;4.00;99.90;;;;;;5032216;28;20040;-62
2022/03/21 03:28:43;;;;;;;32.17;15.68;;;4.10;99.90;;;;;;5032145;28;20411;-61
2022/03/21 03:31:10;;;;;;;34.53;16.80;;;4.10;99.90;;;;;;5025851;28;20625;-62
2022/03/21 03:33:36;;;;;;;29.15;14.85;;;4.20;99.90;;;;;;5015930;28;20551;-62
2022/03/21 03:36:02;;;;;;;20.42;12.05;;;4.10;99.90;;;;;;5031601;28;20025;-61
2022/03/21 03:41:10;;;;;;;21.90;11.93;;;3.60;99.90;;;;;;5563676;22;20027;-61
2022/03/21 03:43:37;;;;;;;28.17;13.20;;;3.40;99.90;;;;;;5051187;28;20099;-61
2022/03/21 03:46:03;;;;;;;23.25;12.73;;;3.30;99.90;;;;;;5051096;28;20067;-61
2022/03/21 03:48:29;;;;;;;33.13;15.60;;;3.20;99.90;;;;;;5040875;28;20041;-61
2022/03/21 03:50:56;;;;;;;27.00;13.52;;;3.30;99.90;;;;;;5628469;22;20091;-61
2022/03/21 03:53:22;;;;;;;21.77;12.50;;;3.20;99.90;;;;;;5020075;28;20055;-61
2022/03/21 03:55:47;;;;;;;24.65;11.68;;;3.10;99.90;;;;;;5023914;28;20407;-61
2022/03/21 03:58:13;;;;;;;20.98;11.48;;;2.90;99.90;;;;;;5020337;28;20128;-61
2022/03/21 04:00:39;;;;;;;29.52;13.40;;;2.70;99.90;;;;;;5031122;28;20029;-61
2022/03/21 04:05:49;;;;;;;23.30;13.23;;;2.70;99.90;;;;;;5030994;28;20700;-61
2022/03/21 04:08:16;;;;;;;24.52;13.02;;;2.70;99.90;;;;;;5031326;28;20042;-61
2022/03/21 04:10:41;;;;;;;25.85;12.45;;;2.80;99.90;;;;;;5031581;28;20033;-61
2022/03/21 04:13:07;;;;;;;24.10;13.15;;;2.80;99.90;;;;;;5026754;28;20025;-61
2022/03/21 04:20:43;;;;;;;29.08;9.88;;;2.80;99.90;;;;;;5144023;23;20053;-61
2022/03/21 04:23:12;;;;;;;25.60;13.85;;;2.60;99.90;;;;;;5019235;28;20072;-61
2022/03/21 04:25:38;;;;;;;21.50;11.30;;;2.70;99.90;;;;;;5028858;28;20048;-61
2022/03/21 04:28:08;;;;;;;29.83;9.55;;;2.60;99.90;;;;;;5028033;28;20049;-61
2022/03/21 04:30:34;;;;;;;18.73;10.30;;;2.40;99.90;;;;;;5028480;28;20083;-61
2022/03/21 04:32:59;;;;;;;21.58;11.60;;;2.40;99.90;;;;;;5009404;28;20042;-61
2022/03/21 04:35:26;;;;;;;22.75;10.27;;;2.40;99.90;;;;;;5018585;28;20047;-61
2022/03/21 04:37:52;;;;;;;20.80;11.68;;;2.40;99.90;;;;;;5022660;28;20091;-61
2022/03/21 04:40:18;;;;;;;30.50;13.18;;;2.50;99.90;;;;;;5030666;28;20088;-61
2022/03/21 04:42:43;;;;;;;27.88;13.45;;;2.50;99.90;;;;;;5025867;28;20050;-61
2022/03/21 04:45:09;;;;;;;22.83;11.90;;;2.60;99.90;;;;;;5019149;28;20034;-61
2022/03/21 04:47:35;;;;;;;27.73;14.15;;;2.50;99.90;;;;;;5018688;28;20038;-61
2022/03/21 04:50:01;;;;;;;28.17;15.20;;;2.50;99.90;;;;;;5066055;22;20065;-61
2022/03/21 04:52:27;;;;;;;25.98;14.70;;;2.30;99.90;;;;;;5041319;28;20508;-61
2022/03/21 04:54:53;;;;;;;32.60;11.63;;;2.20;99.90;;;;;;5049767;28;20040;-61
2022/03/21 04:57:22;;;;;;;196.00;17.83;;;2.10;99.90;;;;;;5049126;28;20182;-61
2022/03/21 04:59:48;;;;;;;68.00;14.32;;;2.00;99.90;;;;;;5025674;28;20037;-61
2022/03/21 05:02:13;;;;;;;212.85;16.70;;;1.70;99.90;;;;;;5022440;28;20128;-61
2022/03/21 05:09:49;;;;;;;332.10;19.35;;;1.70;99.90;;;;;;5417346;22;20083;-61
2022/03/21 05:12:15;;;;;;;209.18;17.05;;;1.70;99.90;;;;;;5032139;28;20053;-61
2022/03/21 05:14:41;;;;;;;45.28;18.42;;;1.90;99.90;;;;;;5050203;28;20040;-61
2022/03/21 05:17:09;;;;;;;235.70;21.15;;;2.20;99.90;;;;;;5043847;28;20029;-61
2022/03/21 05:19:36;;;;;;;536.63;29.58;;;2.20;99.90;;;;;;5039709;28;21478;-61
2022/03/21 05:32:41;;;;;;;276.30;14.45;;;2.20;99.90;;;;;;5029746;28;20045;-61
2022/03/21 05:37:51;;;;;;;362.05;21.17;;;1.70;99.90;;;;;;5023712;28;20128;-61
2022/03/21 05:40:31;;;;;;;734.20;33.78;;;1.80;99.90;;;;;;5029534;28;20116;-61
2022/03/21 05:45:32;;;;;;;70.70;20.50;;;2.00;99.90;;;;;;5845994;22;20345;-61
2022/03/21 05:50:43;;;;;;;112.60;19.08;;;2.30;99.90;;;;;;4989679;28;20451;-61
2022/03/21 05:53:09;;;;;;;205.85;22.45;;;2.30;99.90;;;;;;4994311;28;20049;-61
2022/03/21 05:58:11;;;;;;;362.75;26.23;;;2.30;99.90;;;;;;5741048;22;20061;-61
2022/03/21 06:00:37;;;;;;;50.22;19.17;;;2.30;99.90;;;;;;5010599;28;20064;-61
2022/03/21 06:03:04;;;;;;;43.67;18.27;;;2.30;99.90;;;;;;5018440;28;20041;-61
2022/03/21 06:05:30;;;;;;;47.47;18.92;;;2.30;99.90;;;;;;5167571;22;20049;-67
2022/03/21 06:07:56;;;;;;;50.20;19.90;;;2.30;99.90;;;;;;5044944;28;20055;-61
2022/03/21 06:10:22;;;;;;;162.20;20.65;;;2.30;99.90;;;;;;5045814;28;20048;-61
2022/03/21 06:12:49;;;;;;;48.55;19.50;;;2.20;99.90;;;;;;5063828;28;20040;-61
2022/03/21 06:15:15;;;;;;;68.97;17.95;;;2.20;99.90;;;;;;5052606;28;20050;-61
2022/03/21 06:17:43;;;;;;;43.38;18.17;;;2.20;99.90;;;;;;5052733;28;20072;-61
2022/03/21 06:20:11;;;;;;;43.55;18.83;;;2.40;99.90;;;;;;5048131;28;20534;-61
2022/03/21 06:22:37;;;;;;;43.10;19.35;;;2.50;99.90;;;;;;5049636;28;20037;-61
2022/03/21 06:25:04;;;;;;;41.85;19.27;;;2.70;99.90;;;;;;5044940;28;20044;-61
2022/03/21 06:30:07;;;;;;;39.38;18.08;;;2.90;99.90;;;;;;5754915;22;20048;-61
2022/03/21 06:32:34;;;;;;;43.20;17.95;;;2.60;99.90;;;;;;5059376;28;20075;-61
2022/03/21 06:34:59;;;;;;;100.95;17.55;;;2.70;99.90;;;;;;5047244;28;20036;-61
2022/03/21 06:40:00;;;;;;;35.08;16.67;;;2.80;99.90;;;;;;5804089;22;20101;-61
2022/03/21 06:42:26;;;;;;;38.47;18.30;;;2.90;99.90;;;;;;5037507;28;20032;-61
2022/03/21 06:44:53;;;;;;;51.25;20.48;;;2.90;99.90;;;;;;5043474;28;20121;-61
2022/03/21 06:49:58;;;;;;;38.90;17.65;;;3.10;99.90;;;;;;6295805;22;20119;31
2022/03/21 06:52:23;;;;;;;33.30;17.35;;;2.80;99.90;;;;;;5011833;28;20045;-61
2022/03/21 06:54:49;;;;;;;32.72;15.77;;;2.70;99.90;;;;;;5023090;28;20030;-61
2022/03/21 06:57:18;;;;;;;31.10;15.35;;;2.60;99.90;;;;;;5028590;28;20491;-61
2022/03/21 06:59:47;;;;;;;27.95;15.52;;;2.50;99.90;;;;;;5015238;28;20034;-61
2022/03/21 07:02:15;;;;;;;32.47;17.02;;;2.40;99.90;;;;;;5023188;28;20037;-61
2022/03/21 07:07:15;;;;;;;31.73;16.30;;;2.50;99.90;;;;;;5022128;28;20053;-62
2022/03/21 07:09:40;;;;;;;28.38;15.75;;;2.50;99.90;;;;;;5029585;28;20490;-62
2022/03/21 07:12:06;;;;;;;29.50;15.48;;;2.60;99.90;;;;;;5029841;28;20622;-62
2022/03/21 07:14:32;;;;;;;36.50;16.73;;;2.70;99.90;;;;;;5031772;28;20044;-62
2022/03/21 07:16:58;;;;;;;35.90;18.05;;;2.90;99.90;;;;;;5025338;28;20041;-62
2022/03/21 07:19:24;;;;;;;32.78;17.10;;;3.10;99.90;;;;;;5028667;28;20042;-62
2022/03/21 07:21:49;;;;;;;33.10;16.83;;;3.20;99.90;;;;;;5027982;28;20052;-62
2022/03/21 07:24:15;;;;;;;42.10;18.95;;;3.30;99.90;;;;;;5025548;28;20038;-62
2022/03/21 07:26:41;;;;;;;38.90;17.67;;;3.50;99.90;;;;;;5028454;28;20053;-62
2022/03/21 07:29:07;;;;;;;37.70;17.98;;;3.60;99.90;;;;;;5026304;28;20665;-62
2022/03/21 07:31:34;;;;;;;42.75;18.85;;;3.80;99.90;;;;;;5026775;28;20042;-62
2022/03/21 07:34:00;;;;;;;39.78;18.65;;;3.90;99.90;;;;;;5024905;28;20191;-62
2022/03/21 07:36:25;;;;;;;43.42;18.90;;;4.10;99.90;;;;;;5026087;28;20447;-62
2022/03/21 07:38:51;;;;;;;48.78;22.35;;;4.20;99.90;;;;;;5025063;28;20065;-62
2022/03/21 07:41:17;;;;;;;49.97;20.67;;;4.40;99.90;;;;;;5027984;28;20029;-62
2022/03/21 07:43:42;;;;;;;53.83;22.58;;;4.60;99.90;;;;;;5028229;28;20396;-62
2022/03/21 07:48:52;;;;;;;50.67;22.17;;;4.90;99.90;;;;;;5033875;28;20041;-62
2022/03/21 07:51:18;;;;;;;47.55;22.52;;;5.10;99.90;;;;;;5028417;28;20029;-62
2022/03/21 07:53:44;;;;;;;48.55;21.17;;;5.20;99.90;;;;;;5028424;28;20095;-62
2022/03/21 07:56:09;;;;;;;50.63;22.35;;;5.40;99.90;;;;;;5026063;28;20041;-62
2022/03/21 07:58:36;;;;;;;52.97;22.35;;;5.60;99.90;;;;;;5027391;28;20132;-62
2022/03/21 08:01:02;;;;;;;53.58;22.90;;;5.70;99.90;;;;;;5020603;28;20116;-62
2022/03/21 08:03:28;;;;;;;48.03;22.23;;;6.00;99.90;;;;;;5028291;28;20562;-62
2022/03/21 08:05:54;;;;;;;46.78;21.85;;;6.20;99.90;;;;;;5028071;28;20045;-62
2022/03/21 08:08:21;;;;;;;46.63;22.92;;;6.30;99.90;;;;;;5033428;28;20045;-62
2022/03/21 08:10:47;;;;;;;41.67;21.98;;;6.30;99.90;;;;;;5023260;28;20041;-62
2022/03/21 08:13:17;;;;;;;38.00;21.13;;;6.40;99.90;;;;;;5027477;28;20515;-62
2022/03/21 08:15:44;;;;;;;41.28;20.23;;;6.60;99.90;;;;;;5024761;28;20144;-62
2022/03/21 08:18:11;;;;;;;38.63;20.40;;;6.70;99.90;;;;;;5027024;28;20037;-62
2022/03/21 08:20:39;;;;;;;37.13;19.90;;;6.80;99.90;;;;;;5027462;28;20041;-62
2022/03/21 08:23:10;;;;;;;35.28;19.63;;;7.00;99.90;;;;;;5024888;28;20045;-62
2022/03/21 08:25:36;;;;;;;36.88;19.08;;;7.10;99.90;;;;;;5029333;28;20041;-62
2022/03/21 08:28:02;;;;;;;36.25;19.00;;;7.30;99.90;;;;;;5008394;28;20188;-62
2022/03/21 08:30:32;;;;;;;36.22;20.30;;;7.40;99.90;;;;;;5012645;28;20183;-62
2022/03/21 08:32:58;;;;;;;34.70;19.42;;;7.50;99.90;;;;;;5026679;28;20037;-63
2022/03/21 08:35:24;;;;;;;37.63;20.40;;;7.70;99.90;;;;;;5011453;28;20041;-62
2022/03/21 08:37:50;;;;;;;35.28;18.58;;;7.80;99.90;;;;;;5025680;28;20048;-62
2022/03/21 08:40:16;;;;;;;37.53;20.45;;;7.90;99.90;;;;;;5024804;28;20045;-62
2022/03/21 08:42:42;;;;;;;36.85;19.38;;;8.00;99.90;;;;;;5025063;28;20120;-62
2022/03/21 08:45:08;;;;;;;32.33;18.33;;;8.10;99.90;;;;;;5027927;28;20113;-62
2022/03/21 08:47:35;;;;;;;30.52;17.73;;;8.20;99.90;;;;;;5027906;28;20411;-63
2022/03/21 08:50:00;;;;;;;36.35;17.67;;;8.40;99.90;;;;;;5025642;28;20133;-63
2022/03/21 08:52:26;;;;;;;33.20;18.67;;;8.40;99.90;;;;;;5035178;28;20550;-62
2022/03/21 08:54:51;;;;;;;34.15;17.90;;;8.60;99.90;;;;;;5025867;28;20462;-62
2022/03/21 08:57:17;;;;;;;34.95;16.92;;;8.70;99.90;;;;;;5021042;28;20033;-62
2022/03/21 08:59:44;;;;;;;30.67;17.08;;;8.70;99.90;;;;;;5027423;28;20068;-62
2022/03/21 09:02:09;;;;;;;28.23;16.45;;;8.90;99.90;;;;;;5027768;28;20116;-62
2022/03/21 09:04:35;;;;;;;26.38;15.43;;;8.90;99.90;;;;;;5024120;28;20174;-62
2022/03/21 09:07:01;;;;;;;29.95;16.48;;;9.00;99.90;;;;;;5027164;28;20040;-62
2022/03/21 09:09:27;;;;;;;27.83;15.90;;;9.00;99.90;;;;;;5027337;28;20044;-62
2022/03/21 09:11:52;;;;;;;30.55;16.52;;;9.10;99.90;;;;;;5025268;28;20526;-62
2022/03/21 09:14:18;;;;;;;30.38;16.17;;;9.00;99.90;;;;;;5027116;28;20037;-62
2022/03/21 09:16:44;;;;;;;29.58;16.88;;;9.20;99.90;;;;;;5024861;28;20136;-62
2022/03/21 09:19:10;;;;;;;31.17;17.52;;;9.30;99.90;;;;;;5026972;28;20044;-62
2022/03/21 09:21:37;;;;;;;31.55;16.00;;;9.40;99.90;;;;;;5027486;28;20037;-62
2022/03/21 09:24:04;;;;;;;31.30;16.88;;;9.40;99.90;;;;;;5027220;28;20037;-62
2022/03/21 09:26:30;;;;;;;37.35;16.70;;;9.40;99.90;;;;;;5024734;28;20034;-62
2022/03/21 09:29:03;;;;;;;31.15;17.58;;;9.50;99.90;;;;;;5024515;28;20082;-62
2022/03/21 09:31:29;;;;;;;36.20;18.80;;;9.60;99.90;;;;;;5020287;28;20380;-62
2022/03/21 09:33:55;;;;;;;32.13;18.17;;;9.80;99.90;;;;;;5026503;28;20124;-63
2022/03/21 09:36:21;;;;;;;31.13;17.95;;;9.90;99.90;;;;;;5019696;28;20033;-62
2022/03/21 09:38:47;;;;;;;36.53;18.42;;;9.90;99.90;;;;;;5026995;28;20033;-62
2022/03/21 09:41:13;;;;;;;37.08;18.88;;;10.00;99.90;;;;;;5028097;28;20086;-62
2022/03/21 09:43:39;;;;;;;42.58;20.00;;;10.00;99.90;;;;;;5026165;28;20076;-62
2022/03/21 09:46:07;;;;;;;35.55;19.17;;;10.10;99.90;;;;;;5028025;28;20088;-62
2022/03/21 09:48:34;;;;;;;31.75;18.15;;;10.20;99.90;;;;;;5030468;28;20044;-62
2022/03/21 09:51:01;;;;;;;33.95;18.90;;;10.20;99.90;;;;;;5025560;28;20033;-62
2022/03/21 09:53:28;;;;;;;34.28;18.60;;;10.30;99.90;;;;;;5042080;28;20472;-62
2022/03/21 09:55:55;;;;;;;34.67;19.67;;;10.30;99.90;;;;;;5031761;28;20124;-62
2022/03/21 09:58:21;;;;;;;36.95;21.00;;;10.40;99.90;;;;;;5028216;28;20475;-63
2022/03/21 10:00:51;;;;;;;32.35;20.05;;;10.50;99.90;;;;;;5025357;28;20063;-62
2022/03/21 10:03:16;;;;;;;36.15;20.60;;;10.50;99.90;;;;;;5027983;28;20187;-62
2022/03/21 10:05:46;;;;;;;36.25;21.25;;;10.60;99.90;;;;;;5030008;28;20551;-62
2022/03/21 10:08:27;;;;;;;39.63;21.30;;;10.80;99.90;;;;;;5031296;28;20038;-62
2022/03/21 10:10:58;;;;;;;41.53;19.92;;;10.90;99.90;;;;;;5028580;28;20052;-62
2022/03/21 10:13:29;;;;;;;35.00;20.00;;;10.90;99.90;;;;;;5029755;28;20052;-62
2022/03/21 10:16:09;;;;;;;38.30;21.33;;;10.90;99.90;;;;;;5030128;28;20180;-62
2022/03/21 10:18:37;;;;;;;40.05;20.83;;;10.90;99.90;;;;;;5028380;28;20547;-62
2022/03/21 10:21:13;;;;;;;41.30;20.88;;;11.00;99.90;;;;;;5027586;28;20794;-62
2022/03/21 10:23:39;;;;;;;38.50;21.48;;;11.00;99.90;;;;;;5030108;28;20037;-63
2022/03/21 10:26:26;;;;;;;38.42;21.92;;;11.10;99.90;;;;;;5030618;28;20041;-62
2022/03/21 10:28:54;;;;;;;40.67;21.98;;;11.10;99.90;;;;;;5028425;28;20041;-62
2022/03/21 10:31:38;;;;;;;36.90;21.38;;;11.20;99.90;;;;;;5030190;28;20777;-62
2022/03/21 10:34:09;;;;;;;37.33;21.52;;;11.30;99.90;;;;;;5018600;28;20034;-62
2022/03/21 10:36:35;;;;;;;44.70;22.23;;;11.30;99.90;;;;;;5024299;28;20044;-62
2022/03/21 10:39:12;;;;;;;38.80;21.50;;;11.50;99.90;;;;;;5028963;28;20436;-62
2022/03/21 10:41:39;;;;;;;40.03;21.63;;;11.50;99.90;;;;;;5030535;28;20076;-62
2022/03/21 10:44:07;;;;;;;46.50;22.85;;;11.50;99.90;;;;;;5027274;28;20041;-62
2022/03/21 10:46:33;;;;;;;39.58;21.63;;;11.50;99.90;;;;;;5029751;28;20049;-62
2022/03/21 10:49:09;;;;;;;43.25;22.50;;;11.70;99.90;;;;;;5029917;28;20041;-62
2022/03/21 10:51:48;;;;;;;42.78;22.00;;;11.90;99.90;;;;;;5025223;28;20050;-62
2022/03/21 10:54:49;;;;;;;47.45;22.65;;;11.90;99.90;;;;;;5024323;28;20052;-62
2022/03/21 10:57:31;;;;;;;40.40;21.70;;;12.10;99.90;;;;;;5022654;28;20397;-62
2022/03/21 11:00:20;;;;;;;43.13;22.33;;;12.20;99.90;;;;;;5029736;28;20567;-62
2022/03/21 11:03:00;;;;;;;44.10;22.40;;;12.40;99.90;;;;;;5023334;28;20095;-63
2022/03/21 11:05:30;;;;;;;41.67;22.98;;;12.50;99.90;;;;;;5021856;28;20037;-62
2022/03/21 11:07:56;;;;;;;45.05;24.05;;;12.50;99.90;;;;;;5025492;28;20621;-62
2022/03/21 11:10:23;;;;;;;43.75;23.58;;;12.60;99.90;;;;;;5024320;28;20052;-62
2022/03/21 11:12:49;;;;;;;45.25;22.63;;;12.70;99.90;;;;;;5029544;28;20261;-63
2022/03/21 11:15:15;;;;;;;44.60;23.35;;;12.60;99.90;;;;;;5027952;28;20041;-62
2022/03/21 11:17:42;;;;;;;43.60;23.20;;;12.70;99.90;;;;;;5025421;28;20594;-62
2022/03/21 11:20:09;;;;;;;45.47;23.75;;;12.70;99.90;;;;;;5027778;28;20038;-62
2022/03/21 11:22:36;;;;;;;43.20;22.67;;;12.80;99.90;;;;;;5027445;28;20046;-62
2022/03/21 11:25:05;;;;;;;39.83;21.38;;;12.90;99.90;;;;;;5022644;28;20123;-63
2022/03/21 11:27:51;;;;;;;37.25;22.08;;;12.90;99.90;;;;;;5027285;28;20743;-63
2022/03/21 11:30:28;;;;;;;38.70;22.52;;;13.10;99.90;;;;;;5026571;28;20041;-62
2022/03/21 11:33:07;;;;;;;37.78;21.63;;;13.20;99.90;;;;;;5028437;28;20049;-62
2022/03/21 11:35:34;;;;;;;38.28;22.85;;;13.30;99.90;;;;;;5029464;28;20376;-63
2022/03/21 11:38:28;;;;;;;37.60;22.67;;;13.30;99.90;;;;;;5026955;28;20037;-63
2022/03/21 11:41:18;;;;;;;38.00;22.17;;;13.40;99.90;;;;;;5026753;28;20041;-63
2022/03/21 11:43:45;;;;;;;39.47;22.85;;;13.50;99.90;;;;;;5034722;28;20041;-63
2022/03/21 11:46:29;;;;;;;39.80;22.25;;;13.80;99.90;;;;;;5028808;28;20029;-63
2022/03/21 11:48:56;;;;;;;41.22;22.42;;;13.80;99.90;;;;;;5029401;28;20041;-63
2022/03/21 11:51:23;;;;;;;40.42;22.77;;;13.90;99.90;;;;;;5026284;28;20037;-63
2022/03/21 11:53:51;;;;;;;41.50;22.98;;;14.00;99.90;;;;;;5027841;28;20317;-62
2022/03/21 11:56:45;;;;;;;45.22;23.92;;;14.00;99.90;;;;;;5016175;28;20040;-63
2022/03/21 11:59:32;;;;;;;40.40;22.98;;;14.20;99.90;;;;;;5025871;28;20048;-63
2022/03/21 12:02:09;;;;;;;39.08;22.65;;;14.30;99.90;;;;;;5032919;28;20102;-62
2022/03/21 12:04:37;;;;;;;44.58;22.85;;;14.40;99.90;;;;;;5028511;28;20110;-62
2022/03/21 12:07:12;;;;;;;37.25;22.45;;;14.50;99.90;;;;;;5028351;28;20051;-62
2022/03/21 12:09:45;;;;;;;38.20;23.08;;;14.50;99.90;;;;;;5025877;28;20041;-62
2022/03/21 12:12:12;;;;;;;42.08;23.85;;;14.40;99.90;;;;;;5021662;28;20048;-62
2022/03/21 12:14:46;;;;;;;43.03;24.35;;;14.50;99.90;;;;;;5026313;28;20048;-62
2022/03/21 12:17:11;;;;;;;40.33;23.58;;;14.60;99.90;;;;;;5027117;28;20052;-62
2022/03/21 12:19:51;;;;;;;38.22;23.05;;;14.60;99.90;;;;;;5028205;28;20431;-62
2022/03/21 12:25:09;;;;;;;39.05;22.63;;;14.80;99.90;;;;;;5020983;28;20045;-62
2022/03/21 12:28:17;;;;;;;37.80;23.05;;;14.90;99.90;;;;;;5027863;28;20029;-62
2022/03/21 12:30:48;;;;;;;35.90;21.00;;;14.90;99.90;;;;;;5007286;28;20080;-62
2022/03/21 12:33:13;;;;;;;36.67;22.52;;;14.90;99.90;;;;;;5021039;28;20049;-62
2022/03/21 12:35:43;;;;;;;39.42;22.33;;;15.00;99.90;;;;;;5026898;28;20034;-62
2022/03/21 12:38:11;;;;;;;37.70;23.85;;;15.00;99.90;;;;;;5028224;28;20038;-62
2022/03/21 12:40:59;;;;;;;39.70;23.20;;;15.10;99.90;;;;;;5023516;28;20037;-62
2022/03/21 12:43:33;;;;;;;37.38;23.35;;;15.10;99.90;;;;;;5017122;28;20080;-62
2022/03/21 12:46:06;;;;;;;37.88;23.02;;;15.10;98.20;;;;;;5027203;28;20037;-62
2022/03/21 12:48:36;;;;;;;39.20;23.00;;;15.20;99.90;;;;;;5025929;28;20530;-62
2022/03/21 12:51:04;;;;;;;39.40;24.10;;;15.30;99.90;;;;;;5027650;28;20067;-62
2022/03/21 12:53:44;;;;;;;45.58;23.35;;;15.50;99.90;;;;;;5027554;28;20043;-62
2022/03/21 12:56:13;;;;;;;38.08;22.83;;;15.50;99.90;;;;;;5025821;28;20037;-62
2022/03/21 12:58:45;;;;;;;34.58;22.70;;;15.60;99.90;;;;;;5024487;28;20041;-62
2022/03/21 13:01:11;;;;;;;45.85;23.98;;;15.70;99.90;;;;;;5027528;28;20041;-63
2022/03/21 13:03:36;;;;;;;41.78;23.70;;;15.70;99.90;;;;;;5027580;28;20503;-62
2022/03/21 13:11:44;;;;;;;40.78;23.38;;;16.00;99.90;;;;;;5047659;28;20120;-62
2022/03/21 13:14:15;;;;;;;41.20;23.63;;;16.00;99.90;;;;;;5043939;28;20136;-63
2022/03/21 13:16:51;;;;;;;39.33;23.92;;;16.00;99.90;;;;;;5040709;28;20040;-62
2022/03/21 13:19:22;;;;;;;47.53;24.88;;;16.00;99.90;;;;;;5046236;28;20094;-63
2022/03/21 13:21:53;;;;;;;41.55;24.17;;;16.00;99.90;;;;;;5043486;28;20051;-62
2022/03/21 13:24:38;;;;;;;41.42;23.92;;;16.10;99.90;;;;;;5043330;28;20067;-62
2022/03/21 13:27:04;;;;;;;38.78;24.05;;;16.10;98.50;;;;;;5039478;28;20053;-63
2022/03/21 13:29:30;;;;;;;37.50;24.02;;;16.20;99.90;;;;;;5037940;28;20590;-60
2022/03/21 13:31:56;;;;;;;39.58;23.95;;;16.20;99.90;;;;;;5030483;28;20048;-60
2022/03/21 13:34:22;;;;;;;39.05;24.55;;;16.30;99.90;;;;;;5037432;28;20048;-60
2022/03/21 13:36:48;;;;;;;40.40;23.83;;;16.40;99.90;;;;;;5032833;28;20033;-60
2022/03/21 13:39:26;;;;;;;37.83;23.75;;;16.40;99.90;;;;;;5033413;28;20037;-60
2022/03/21 13:42:04;;;;;;;34.53;22.67;;;16.60;99.90;;;;;;5040299;28;20045;-60